Terminal Aerodrome Forecast
Issued by NWS

Home | Current Version | Previous Version | Text Only | Print | Product List | Glossary On
Versions: 1 2 3 4 5 6 7 8 9 10 11 12 13 14 15 16
000
FTUS41 KCAR 281700 RRA
TAFHUL
TAF
KHUL 281750Z 2818/2918 14009KT P6SM SCT015 BKN025
     FM282000 13010G19KT 3SM -RA VCTS SCT007 OVC015CB
     FM282300 13010G19KT 3SM -SHRA OVC007
     FM290300 16009KT 3SM BR OVC003
     FM291100 19008KT P6SM BKN008
     FM291400 21008KT P6SM BKN015=

USA.gov is the U.S. government's official web portal to all federal, state and local government web resources and services.